Time;durP1;ratioP1;P1;durP2;ratioP2;P2;SDS_P1;SDS_P2;PMS_P1;PMS_P2;Temp;Humidity;BMP_temperature;BMP_pressure;BME280_temperature;BME280_humidity;BME280_pressure;Samples;Min_cycle;Max_cycle;Signal;HPM_P1;HPM_P2
2023/01/03 00:01:40;;;;;;;49.33;34.40;;;;;;;7.94;100.00;101218.02;1552675;85;21433;-89
2023/01/03 00:08:45;;;;;;;48.20;32.73;;;;;;;8.00;100.00;101226.34;1611463;85;21449;-86
2023/01/03 00:11:14;;;;;;;52.43;33.73;;;;;;;8.02;100.00;101227.05;1448134;85;21800;-87
2023/01/03 00:13:41;;;;;;;49.87;34.77;;;;;;;8.05;100.00;101229.94;1436671;85;21323;-87
2023/01/03 00:16:18;;;;;;;47.77;34.77;;;;;;;8.03;100.00;101226.11;1439792;85;21301;-87
2023/01/03 00:18:45;;;;;;;47.47;33.87;;;;;;;8.01;100.00;101225.38;1438705;85;22162;-90
2023/01/03 00:21:12;;;;;;;48.80;35.30;;;;;;;8.01;100.00;101221.42;1475052;85;21558;-89
2023/01/03 00:23:38;;;;;;;45.60;34.10;;;;;;;7.98;100.00;101222.96;1439607;85;22196;-90
2023/01/03 00:26:14;;;;;;;51.43;32.50;;;;;;;7.99;100.00;101221.16;1484155;85;21602;-90
2023/01/03 00:28:42;;;;;;;47.43;31.53;;;;;;;8.00;100.00;101219.75;1519334;85;21462;-88
2023/01/03 00:31:11;;;;;;;43.33;32.30;;;;;;;8.01;100.00;101224.05;1523880;85;22371;-88
2023/01/03 00:33:40;;;;;;;51.93;35.90;;;;;;;8.05;100.00;101229.94;1523053;85;22467;-88
2023/01/03 00:36:08;;;;;;;46.60;33.87;;;;;;;8.04;100.00;101232.22;1444010;85;22210;-87
2023/01/03 00:38:36;;;;;;;51.63;35.67;;;;;;;8.00;100.00;101232.92;1502397;85;22298;-87
2023/01/03 00:41:12;;;;;;;49.57;33.97;;;;;;;7.97;100.00;101234.47;1514212;85;21469;-87
2023/01/03 00:43:41;;;;;;;46.53;31.60;;;;;;;7.94;100.00;101238.65;1517771;85;21448;-88
2023/01/03 00:46:09;;;;;;;43.60;31.87;;;;;;;7.94;100.00;101239.97;1476496;85;21448;-88
2023/01/03 00:48:37;;;;;;;42.43;29.90;;;;;;;7.93;100.00;101238.74;1519605;85;21462;-87
2023/01/03 00:51:16;;;;;;;43.70;28.43;;;;;;;7.93;100.00;101239.58;1439095;85;21368;-87
2023/01/03 00:53:45;;;;;;;49.87;31.70;;;;;;;7.93;100.00;101239.58;1611491;85;21345;-87
2023/01/03 00:56:15;;;;;;;41.80;31.10;;;;;;;7.94;100.00;101241.28;1452510;85;21588;-89
2023/01/03 00:58:42;;;;;;;46.08;32.35;;;;;;;7.95;100.00;101239.00;1520925;85;23102;-88
2023/01/03 01:01:31;;;;;;;46.30;32.50;;;;;;;7.93;100.00;101236.94;1439392;85;21382;-87
2023/01/03 01:04:05;;;;;;;49.77;33.07;;;;;;;7.93;100.00;101232.99;1519170;85;22431;-88
2023/01/03 01:06:36;;;;;;;46.13;30.80;;;;;;;7.89;100.00;101238.13;1524134;85;22387;-88
2023/01/03 01:09:05;;;;;;;40.95;30.02;;;;;;;7.89;100.00;101247.36;1520364;85;21512;-89
2023/01/03 01:11:33;;;;;;;41.23;28.50;;;;;;;7.88;100.00;101237.30;1513069;85;21713;-89
2023/01/03 01:14:00;;;;;;;39.77;28.47;;;;;;;7.90;100.00;101239.80;1500305;86;21441;-89
2023/01/03 01:16:31;;;;;;;40.10;30.07;;;;;;;7.91;100.00;101234.44;1496820;86;21470;-90
2023/01/03 01:18:58;;;;;;;;;;;;;;;7.92;100.00;101230.00;1509325;86;22269;-88
2023/01/03 01:21:30;;;;;;;45.53;31.53;;;;;;;7.93;100.00;101223.77;1492843;86;20565;-89
2023/01/03 01:23:59;;;;;;;48.87;31.33;;;;;;;7.92;100.00;101226.05;1497803;85;22372;-90
2023/01/03 01:26:25;;;;;;;47.33;32.47;;;;;;;7.89;100.00;101227.59;1495114;86;21463;-90
2023/01/03 01:28:54;;;;;;;47.43;31.00;;;;;;;7.87;100.00;101229.48;1498088;86;21374;-91
2023/01/03 01:31:24;;;;;;;41.50;29.20;;;;;;;7.84;100.00;101223.12;1497361;86;21338;-90
2023/01/03 01:33:52;;;;;;;49.37;31.63;;;;;;;7.82;100.00;101222.38;1499909;86;21640;-88
2023/01/03 01:36:22;;;;;;;42.10;29.10;;;;;;;7.84;100.00;101214.73;1487809;86;21536;-90
2023/01/03 01:38:58;;;;;;;40.10;28.73;;;;;;;7.85;100.00;101211.16;1499237;86;21419;-90
2023/01/03 01:44:57;;;;;;;44.57;30.40;;;;;;;7.87;100.00;101217.14;1499971;86;21493;-91
2023/01/03 01:47:41;;;;;;;44.77;31.40;;;;;;;7.84;100.00;101217.84;1501843;86;21493;-91
2023/01/03 01:50:36;;;;;;;41.40;29.50;;;;;;;7.77;100.00;101223.17;1501815;87;21551;-92
2023/01/03 01:53:19;;;;;;;37.37;27.17;;;;;;;7.71;100.00;101225.80;1500103;87;22401;-93
2023/01/03 01:56:00;;;;;;;43.20;30.83;;;;;;;7.66;100.00;101223.48;1502734;86;21478;-91
2023/01/03 01:58:32;;;;;;;41.28;30.82;;;;;;;7.61;100.00;101223.45;1499218;86;23151;-90
2023/01/03 02:00:58;;;;;;;37.10;27.90;;;;;;;7.60;100.00;101222.61;1492363;87;21603;-93
2023/01/03 02:03:25;;;;;;;39.93;28.70;;;;;;;7.62;100.00;101230.39;1506636;86;21500;-93
2023/01/03 02:05:54;;;;;;;44.60;31.03;;;;;;;7.62;100.00;101231.25;1499871;87;21548;-92
2023/01/03 02:08:21;;;;;;;41.53;29.57;;;;;;;7.61;100.00;101235.30;1501708;86;21543;-92
2023/01/03 02:11:28;;;;;;;46.57;31.97;;;;;;;7.58;100.00;101228.93;1502455;86;22350;-93
2023/01/03 02:14:00;;;;;;;36.37;26.83;;;;;;;7.59;100.00;101232.76;1499778;86;21441;-93
2023/01/03 02:16:54;;;;;;;36.17;27.60;;;;;;;7.59;100.00;101247.25;1497858;86;21447;-92
2023/01/03 02:19:44;;;;;;;41.00;26.30;;;;;;;7.61;100.00;101228.23;1499680;86;21418;-92
2023/01/03 02:23:05;;;;;;;39.43;28.73;;;;;;;7.61;100.00;101235.30;1494954;86;22415;-91
2023/01/03 02:26:00;;;;;;;46.90;30.75;;;;;;;7.56;100.00;101236.93;1496916;86;22240;-89
2023/01/03 02:28:57;;;;;;;41.13;29.63;;;;;;;7.54;100.00;101240.17;1502104;86;21537;-92
2023/01/03 02:31:58;;;;;;;44.47;31.33;;;;;;;7.54;100.00;101236.22;1500475;86;21522;-92
2023/01/03 02:34:45;;;;;;;51.13;33.90;;;;;;;7.51;100.00;101239.07;1497093;86;21419;-92
2023/01/03 02:37:32;;;;;;;44.00;30.70;;;;;;;7.48;100.00;101239.29;1503371;86;21566;-87
2023/01/03 02:40:09;;;;;;;41.93;30.63;;;;;;;7.49;100.00;101234.38;1501678;87;21587;-93
2023/01/03 02:46:44;;;;;;;43.37;28.90;;;;;;;7.55;100.00;101223.88;1500387;87;21442;-93
2023/01/03 02:49:48;;;;;;;42.17;30.63;;;;;;;7.55;100.00;101229.16;1499597;86;21781;-92
2023/01/03 02:52:25;;;;;;;47.63;32.17;;;;;;;7.50;100.00;101237.37;1492311;87;22329;-91
2023/01/03 02:55:05;;;;;;;44.13;32.47;;;;;;;7.48;100.00;101235.34;1483197;86;23612;-93
2023/01/03 03:04:52;;;;;;;36.03;28.17;;;;;;;7.41;100.00;101248.08;1423375;91;22166;-89
2023/01/03 03:07:28;;;;;;;;;;;;;;;7.48;100.00;101250.27;1423791;91;21691;-93
2023/01/03 03:25:41;;;;;;;47.13;30.73;;;;;;;7.51;100.00;101256.19;1445425;91;21665;-93
2023/01/03 03:31:00;;;;;;;39.40;29.93;;;;;;;7.54;100.00;101259.92;1444130;90;21464;-91
2023/01/03 03:33:30;;;;;;;47.27;29.65;;;;;;;7.57;100.00;101263.66;1441321;90;21744;-92
2023/01/03 03:36:13;;;;;;;40.77;29.13;;;;;;;7.60;100.00;101256.02;1446249;90;21471;-88
2023/01/03 03:38:43;;;;;;;46.97;32.40;;;;;;;7.58;100.00;101261.86;1451255;90;21589;-91
2023/01/03 03:48:20;;;;;;;38.77;29.03;;;;;;;7.45;100.00;101269.77;1447628;90;22533;-91
2023/01/03 03:51:03;;;;;;;43.47;31.37;;;;;;;7.40;100.00;101270.10;1447110;90;22630;-92
2023/01/03 03:53:33;;;;;;;47.70;30.73;;;;;;;7.41;100.00;101274.41;1446597;90;21471;-92
2023/01/03 03:56:10;;;;;;;38.33;27.10;;;;;;;7.44;100.00;101270.24;1448845;90;21470;-92
2023/01/03 03:58:43;;;;;;;40.60;28.30;;;;;;;7.43;100.00;101278.27;1517400;85;21618;-91
2023/01/03 04:01:13;;;;;;;34.60;25.53;;;;;;;7.41;100.00;101273.58;1515942;84;21640;-91
2023/01/03 04:03:42;;;;;;;37.83;26.83;;;;;;;7.37;100.00;101274.75;1520518;85;22461;-92
2023/01/03 04:06:14;;;;;;;37.43;26.63;;;;;;;7.36;100.00;101269.09;1526805;85;21455;-91
2023/01/03 04:08:41;;;;;;;42.00;28.03;;;;;;;7.36;100.00;101274.36;1522761;85;21521;-90
2023/01/03 04:11:08;;;;;;;35.93;25.70;;;;;;;7.35;100.00;101272.69;1519549;85;21448;-89
2023/01/03 04:13:37;;;;;;;34.47;26.53;;;;;;;7.36;100.00;101272.56;1520143;85;21478;-89
2023/01/03 04:16:05;;;;;;;41.57;27.13;;;;;;;7.37;100.00;101274.27;1521997;85;21426;-89
2023/01/03 04:18:32;;;;;;;44.63;30.37;;;;;;;7.39;100.00;101276.33;1499278;85;21447;-89
2023/01/03 04:20:59;;;;;;;46.40;32.43;;;;;;;7.38;100.00;101278.58;1513541;85;21462;-88
2023/01/03 04:23:25;;;;;;;46.33;33.23;;;;;;;7.33;100.00;101271.94;1520472;85;21483;-89
2023/01/03 04:25:52;;;;;;;45.93;32.03;;;;;;;7.30;100.00;101276.10;1513972;85;21440;-88
2023/01/03 04:28:18;;;;;;;45.23;31.90;;;;;;;7.24;100.00;101280.00;1522995;85;23170;-87
2023/01/03 04:30:46;;;;;;;48.40;32.77;;;;;;;7.19;100.00;101278.15;1525934;85;21499;-89
2023/01/03 04:33:14;;;;;;;42.77;31.90;;;;;;;7.14;100.00;101277.64;1509467;85;21567;-89
2023/01/03 04:35:40;;;;;;;46.10;31.63;;;;;;;7.11;100.00;101276.06;1523708;85;21492;-88
2023/01/03 04:38:07;;;;;;;46.13;30.37;;;;;;;7.11;100.00;101283.12;1526384;85;21433;-90
2023/01/03 04:40:35;;;;;;;47.37;32.63;;;;;;;7.15;100.00;101287.22;1517538;85;21610;-90
2023/01/03 04:45:50;;;;;;;49.23;34.23;;;;;;;7.24;100.00;101286.10;1516735;85;21677;-90
2023/01/03 04:48:17;;;;;;;46.17;32.63;;;;;;;7.26;100.00;101285.17;1522309;85;22475;-91
2023/01/03 04:50:54;;;;;;;49.27;31.70;;;;;;;7.24;100.00;101281.31;1514810;85;21381;-92
2023/01/03 04:53:23;;;;;;;47.07;33.27;;;;;;;7.18;100.00;101277.31;1501427;85;21462;-91
2023/01/03 04:55:51;;;;;;;51.80;32.83;;;;;;;7.13;100.00;101283.84;1514953;85;21418;-91
2023/01/03 04:58:19;;;;;;;49.87;32.03;;;;;;;7.13;100.00;101279.89;1521740;85;21447;-91
2023/01/03 05:00:45;;;;;;;47.37;32.70;;;;;;;7.13;100.00;101275.46;1520647;85;21462;-91
2023/01/03 05:03:12;;;;;;;48.80;32.43;;;;;;;7.14;100.00;101285.06;1518208;85;21455;-92
2023/01/03 05:05:39;;;;;;;43.27;30.23;;;;;;;7.14;100.00;101290.81;1531165;85;21654;-89
2023/01/03 05:08:08;;;;;;;51.00;34.13;;;;;;;7.11;100.00;101299.75;1521576;85;22342;-91
2023/01/03 05:10:36;;;;;;;46.03;32.07;;;;;;;7.01;100.00;101295.56;1523570;85;22291;-92
2023/01/03 05:13:02;;;;;;;51.77;35.60;;;;;;;6.94;100.00;101305.31;1519997;84;22321;-93
2023/01/03 05:15:32;;;;;;;54.27;36.00;;;;;;;6.88;100.00;101303.93;1516973;85;22513;-93
2023/01/03 05:17:58;;;;;;;48.77;33.50;;;;;;;6.83;100.00;101302.55;1524861;85;21506;-91
2023/01/03 05:26:07;;;;;;;43.83;28.40;;;;;;;6.71;100.00;101319.52;1526944;85;21732;-90
2023/01/03 05:28:34;;;;;;;42.93;28.83;;;;;;;6.70;100.00;101319.59;1518037;85;21595;-88
2023/01/03 05:31:00;;;;;;;38.67;29.07;;;;;;;6.71;100.00;101316.88;1509044;85;22347;-85
2023/01/03 05:33:28;;;;;;;42.80;30.70;;;;;;;6.73;100.00;101312.38;1524750;85;21514;-88
2023/01/03 05:35:54;;;;;;;41.67;29.73;;;;;;;6.74;100.00;101315.84;1524171;85;22319;-87
2023/01/03 05:38:22;;;;;;;46.07;31.67;;;;;;;6.70;100.00;101319.16;1522708;85;21322;-89
2023/01/03 05:40:49;;;;;;;45.03;29.87;;;;;;;6.69;100.00;101320.08;1522718;85;21410;-89
2023/01/03 05:43:15;;;;;;;45.07;31.97;;;;;;;6.64;100.00;101322.16;1519322;85;21684;-88
2023/01/03 05:45:42;;;;;;;38.93;27.70;;;;;;;6.55;100.00;101326.23;1518875;85;21411;-89
2023/01/03 05:48:08;;;;;;;46.13;30.60;;;;;;;6.54;100.00;101331.61;1519004;85;21470;-89
2023/01/03 05:50:35;;;;;;;44.43;31.27;;;;;;;6.55;100.00;101326.70;1524045;85;21315;-88
2023/01/03 05:53:02;;;;;;;39.30;29.37;;;;;;;6.61;100.00;101328.09;1521456;85;21514;-87
2023/01/03 05:55:29;;;;;;;35.20;27.13;;;;;;;6.63;100.00;101330.17;1521138;85;21491;-86
2023/01/03 05:57:55;;;;;;;35.17;25.47;;;;;;;6.65;100.00;101321.71;1515938;85;21610;-89
2023/01/03 06:00:21;;;;;;;40.53;26.00;;;;;;;6.65;100.00;101326.49;1516869;85;21381;-93
2023/01/03 06:02:47;;;;;;;40.77;30.93;;;;;;;6.65;100.00;101328.29;1526174;85;22520;-91
2023/01/03 06:05:13;;;;;;;49.13;33.47;;;;;;;6.63;100.00;101325.75;1526895;85;21470;-91
2023/01/03 06:07:39;;;;;;;46.80;30.47;;;;;;;6.62;100.00;101324.52;1528156;85;21390;-92
2023/01/03 06:10:07;;;;;;;40.90;30.50;;;;;;;6.61;100.00;101324.99;1519175;85;21418;-91
2023/01/03 06:12:33;;;;;;;48.33;31.20;;;;;;;6.62;100.00;101327.14;1523205;85;21586;-88
2023/01/03 06:14:59;;;;;;;48.70;30.67;;;;;;;6.62;100.00;101333.27;1518720;85;21485;-87
2023/01/03 06:20:10;;;;;;;40.80;28.97;;;;;;;6.55;100.00;101353.01;1517317;85;21642;-88
2023/01/03 06:22:37;;;;;;;39.60;29.23;;;;;;;6.51;100.00;101355.48;1521000;85;21485;-87
2023/01/03 06:25:03;;;;;;;42.47;32.27;;;;;;;6.53;100.00;101353.57;1524468;85;21433;-81
2023/01/03 06:27:29;;;;;;;43.30;30.90;;;;;;;6.51;100.00;101358.11;1524254;85;22200;-81
2023/01/03 06:29:56;;;;;;;44.77;32.40;;;;;;;6.52;100.00;101354.52;1530520;85;21367;-82
2023/01/03 06:32:22;;;;;;;44.00;33.60;;;;;;;6.51;100.00;101358.95;1515744;85;21567;-83
2023/01/03 06:34:48;;;;;;;45.07;31.60;;;;;;;6.49;100.00;101358.67;1520740;85;22291;-83
2023/01/03 06:37:15;;;;;;;43.03;29.17;;;;;;;6.47;100.00;101362.73;1522500;85;21491;-83
2023/01/03 06:39:41;;;;;;;41.63;29.20;;;;;;;6.48;100.00;101361.78;1517600;85;21433;-85
2023/01/03 06:53:15;;;;;;;43.13;31.60;;;;;;;6.52;100.00;101367.20;1514964;85;21706;-87
2023/01/03 06:55:44;;;;;;;43.17;32.07;;;;;;;6.51;100.00;101376.05;1519489;85;21447;-87
2023/01/03 06:58:12;;;;;;;38.13;27.63;;;;;;;6.49;100.00;101375.77;1517469;85;21560;-86
2023/01/03 07:00:43;;;;;;;43.53;31.37;;;;;;;6.45;100.00;101380.38;1522544;85;21491;-86
2023/01/03 07:03:09;;;;;;;42.50;29.15;;;;;;;6.49;100.00;101375.77;1513205;85;21654;-85
2023/01/03 07:05:35;;;;;;;40.93;28.53;;;;;;;6.53;100.00;101386.00;1525121;85;22306;-89
2023/01/03 07:08:01;;;;;;;38.20;29.33;;;;;;;6.59;100.00;101387.40;1522916;85;21522;-90
2023/01/03 07:10:30;;;;;;;40.23;29.83;;;;;;;6.68;100.00;101384.17;1521623;85;21463;-88
2023/01/03 07:15:46;;;;;;;47.63;33.20;;;;;;;6.83;100.00;101399.91;1502218;85;21485;-90
2023/01/03 07:18:14;;;;;;;47.77;33.13;;;;;;;6.82;100.00;101395.56;1500067;85;21382;-87
2023/01/03 07:20:44;;;;;;;49.27;35.80;;;;;;;6.83;100.00;101395.95;1486160;87;21470;-86
2023/01/03 07:23:17;;;;;;;63.28;41.63;;;;;;;6.91;100.00;101403.73;1499815;86;22088;-88
2023/01/03 07:25:44;;;;;;;62.77;42.87;;;;;;;6.97;100.00;101407.75;1489511;87;21985;-86
2023/01/03 07:28:12;;;;;;;62.47;42.37;;;;;;;6.98;100.00;101413.37;1495985;86;22334;-87
2023/01/03 07:30:44;;;;;;;62.30;43.90;;;;;;;7.03;100.00;101415.72;1502133;86;21611;-89
2023/01/03 07:40:22;;;;;;;72.63;46.00;;;;;;;7.30;100.00;101430.15;1500163;87;21521;-87
2023/01/03 07:45:32;;;;;;;58.53;41.23;;;;;;;7.41;100.00;101434.23;1494417;86;21566;-87
2023/01/03 07:47:59;;;;;;;63.10;42.57;;;;;;;7.46;100.00;101438.25;1488805;86;22413;-88
2023/01/03 07:50:25;;;;;;;54.97;40.70;;;;;;;7.51;100.00;101438.40;1493249;86;21485;-87
2023/01/03 07:52:51;;;;;;;60.00;39.97;;;;;;;7.53;100.00;101445.25;1495284;86;21545;-88
2023/01/03 07:55:17;;;;;;;51.27;37.37;;;;;;;7.57;100.00;101433.58;1489811;87;22370;-89
2023/01/03 07:57:43;;;;;;;60.23;40.57;;;;;;;7.64;100.00;101445.38;1499017;86;21431;-87
2023/01/03 08:00:10;;;;;;;71.67;50.83;;;;;;;7.62;100.00;101447.30;1494758;86;21625;-87
2023/01/03 08:02:37;;;;;;;86.63;51.67;;;;;;;7.62;100.00;101453.02;1498009;86;21655;-82
2023/01/03 08:05:03;;;;;;;91.27;56.77;;;;;;;7.58;100.00;101455.50;1488594;86;21508;-83
2023/01/03 08:07:29;;;;;;;74.27;48.37;;;;;;;7.56;100.00;101450.31;1493832;86;21419;-83
2023/01/03 08:15:25;;;;;;;61.83;39.97;;;;;;;7.73;100.00;101453.61;1499676;86;22350;-83
2023/01/03 08:17:51;;;;;;;61.73;40.70;;;;;;;7.82;100.00;101449.03;1496054;87;21705;-83
2023/01/03 08:20:17;;;;;;;61.13;38.13;;;;;;;7.87;100.00;101452.20;1499650;87;21434;-83
2023/01/03 08:22:43;;;;;;;67.63;44.57;;;;;;;7.96;100.00;101462.59;1495129;86;21440;-84
2023/01/03 08:25:10;;;;;;;71.97;46.13;;;;;;;8.00;100.00;101463.59;1495078;86;22417;-83
2023/01/03 08:27:36;;;;;;;72.50;45.53;;;;;;;8.03;100.00;101462.55;1498601;86;21420;-83
2023/01/03 08:30:03;;;;;;;76.37;47.17;;;;;;;8.06;100.00;101463.17;1498525;86;21604;-83
2023/01/03 08:32:32;;;;;;;83.80;48.40;;;;;;;8.08;100.00;101465.20;1500123;86;21529;-83
2023/01/03 08:34:58;;;;;;;81.53;49.73;;;;;;;8.09;100.00;101464.76;1494908;86;21374;-84
2023/01/03 08:37:26;;;;;;;87.07;52.30;;;;;;;8.14;100.00;101467.45;1496778;86;21688;-83
2023/01/03 08:40:00;;;;;;;98.50;55.43;;;;;;;8.17;100.00;101466.39;1498434;87;22321;-83
2023/01/03 08:42:26;;;;;;;93.87;54.87;;;;;;;8.28;100.00;101468.26;1502291;86;21441;-83
2023/01/03 08:44:58;;;;;;;113.23;65.10;;;;;;;8.38;100.00;101468.00;1497735;86;21785;-87
2023/01/03 08:47:25;;;;;;;116.37;71.47;;;;;;;8.52;100.00;101458.66;1495195;87;22391;-89
2023/01/03 08:49:51;;;;;;;108.43;60.07;;;;;;;8.65;100.00;101454.66;1500919;86;21411;-91
2023/01/03 08:52:17;;;;;;;97.93;56.30;;;;;;;8.76;100.00;101450.77;1498192;86;21531;-89
2023/01/03 08:54:44;;;;;;;102.90;56.27;;;;;;;8.85;100.00;101457.18;1497336;87;21449;-92
2023/01/03 08:57:10;;;;;;;98.50;58.67;;;;;;;8.89;100.00;101453.83;1500828;87;21397;-90
2023/01/03 08:59:36;;;;;;;97.93;53.00;;;;;;;9.02;100.00;101455.95;1495438;86;21470;-90
2023/01/03 09:02:02;;;;;;;90.73;52.63;;;;;;;9.12;100.00;101453.47;1498877;87;21662;-84
2023/01/03 09:04:29;;;;;;;89.20;50.93;;;;;;;9.14;100.00;101452.89;1495921;86;22284;-84
2023/01/03 09:06:55;;;;;;;98.17;52.23;;;;;;;9.10;100.00;101454.92;1503899;86;21449;-84
2023/01/03 09:09:22;;;;;;;101.17;53.60;;;;;;;9.06;100.00;101459.20;1495563;86;22046;-84
2023/01/03 09:11:48;;;;;;;82.83;50.07;;;;;;;8.99;100.00;101453.54;1504079;86;21433;-83
2023/01/03 09:14:14;;;;;;;97.57;50.50;;;;;;;8.97;100.00;101451.00;1498791;86;22262;-84
2023/01/03 09:16:40;;;;;;;83.70;47.30;;;;;;;8.93;100.00;101452.19;1499542;86;21507;-84
2023/01/03 09:19:07;;;;;;;77.93;45.30;;;;;;;8.93;100.00;101462.75;1495532;86;21463;-83
2023/01/03 09:21:33;;;;;;;80.27;43.63;;;;;;;8.90;100.00;101465.61;1497942;86;21448;-85
2023/01/03 09:23:59;;;;;;;73.00;43.20;;;;;;;8.75;100.00;101457.50;1518505;85;21433;-83
2023/01/03 09:26:25;;;;;;;75.73;46.70;;;;;;;8.74;100.00;101451.83;1515374;85;22472;-83
2023/01/03 09:28:52;;;;;;;82.30;45.07;;;;;;;8.83;100.00;101454.28;1519494;85;21485;-83
2023/01/03 09:31:18;;;;;;;84.87;45.60;;;;;;;8.80;100.00;101459.30;1525345;85;21588;-83
2023/01/03 09:33:44;;;;;;;84.87;48.07;;;;;;;8.72;100.00;101452.44;1519581;85;22394;-83
2023/01/03 09:36:11;;;;;;;96.03;51.23;;;;;;;8.76;100.00;101457.85;1519810;85;21492;-83
2023/01/03 09:38:37;;;;;;;85.87;50.10;;;;;;;8.76;100.00;101460.48;1524269;85;21624;-83
2023/01/03 09:41:07;;;;;;;100.30;50.93;;;;;;;8.71;100.00;101466.09;1515381;85;21433;-84
2023/01/03 09:43:47;;;;;;;96.17;52.88;;;;;;;8.63;100.00;101464.95;1526329;85;22493;-83
2023/01/03 09:46:23;;;;;;;101.03;51.63;;;;;;;8.66;100.00;101462.09;1513611;85;21492;-83
2023/01/03 09:48:51;;;;;;;86.73;50.57;;;;;;;8.71;100.00;101467.89;1517632;85;21521;-82
2023/01/03 10:03:44;;;;;;;89.93;51.60;;;;;;;8.75;100.00;101460.13;1520731;85;21352;-83
2023/01/03 10:06:46;;;;;;;103.17;55.30;;;;;;;8.73;100.00;101454.95;1518915;85;21344;-82
2023/01/03 10:09:41;;;;;;;89.87;48.20;;;;;;;8.74;100.00;101459.75;1523335;85;21460;-83
2023/01/03 10:12:39;;;;;;;86.93;48.23;;;;;;;8.63;100.00;101462.31;1519850;85;21441;-83
2023/01/03 10:15:38;;;;;;;90.10;50.50;;;;;;;8.67;100.00;101457.20;1527297;85;21352;-82
2023/01/03 10:18:36;;;;;;;105.10;55.00;;;;;;;8.75;100.00;101463.61;1526885;85;21425;-83
2023/01/03 10:21:26;;;;;;;105.77;49.57;;;;;;;8.74;100.00;101465.03;1516231;85;21617;-82
2023/01/03 10:23:53;;;;;;;101.45;52.30;;;;;;;8.75;100.00;101472.85;1522486;85;22540;-80
2023/01/03 10:26:22;;;;;;;93.60;51.70;;;;;;;8.75;100.00;101465.41;1520777;85;21536;-83
2023/01/03 10:28:48;;;;;;;99.00;48.63;;;;;;;8.64;100.00;101466.66;1526529;85;21463;-82
2023/01/03 10:31:55;;;;;;;77.50;43.60;;;;;;;8.66;100.00;101467.37;1519223;85;21433;-83
2023/01/03 10:34:21;;;;;;;85.67;48.83;;;;;;;8.56;100.00;101466.71;1524499;85;21433;-83
2023/01/03 10:36:47;;;;;;;110.33;60.03;;;;;;;8.52;100.00;101467.06;1511236;85;21529;-82
2023/01/03 10:39:15;;;;;;;115.40;58.70;;;;;;;8.54;100.00;101465.97;1525700;85;21443;-83
2023/01/03 10:41:48;;;;;;;95.10;48.20;;;;;;;8.50;100.00;101465.83;1518368;85;21418;-82
2023/01/03 10:44:28;;;;;;;92.13;48.77;;;;;;;8.42;100.00;101459.41;1500988;85;21330;-83
2023/01/03 10:46:58;;;;;;;101.77;49.07;;;;;;;8.45;100.00;101469.27;1518572;85;22254;-83
2023/01/03 10:49:30;;;;;;;99.60;48.70;;;;;;;8.47;100.00;101468.69;1520103;85;21292;-83
2023/01/03 10:52:13;;;;;;;109.73;54.37;;;;;;;8.48;100.00;101461.13;1524921;85;21323;-83
2023/01/03 10:54:53;;;;;;;107.80;52.80;;;;;;;8.47;100.00;101460.78;1518582;85;21957;-83
2023/01/03 10:57:54;;;;;;;118.08;55.30;;;;;;;8.47;100.00;101463.41;1516811;85;21484;-83
2023/01/03 11:00:36;;;;;;;120.90;58.42;;;;;;;8.41;100.00;101457.26;1526638;85;21315;-83
2023/01/03 11:03:17;;;;;;;116.00;55.63;;;;;;;8.43;100.00;101449.22;1520900;85;21367;-83
2023/01/03 11:05:48;;;;;;;115.08;54.83;;;;;;;8.41;100.00;101451.14;1519475;85;22209;-83
2023/01/03 11:08:22;;;;;;;;;;;;;;;8.41;100.00;101451.98;1519722;85;21424;-82
2023/01/03 11:10:58;;;;;;;133.90;59.60;;;;;;;8.41;100.00;101453.30;1517736;85;20434;-82
2023/01/03 11:13:38;;;;;;;109.23;54.13;;;;;;;8.44;100.00;101453.08;1523957;85;21352;-83
2023/01/03 11:16:14;;;;;;;131.20;55.90;;;;;;;8.48;100.00;101451.90;1512721;85;22350;-82
2023/01/03 11:18:44;;;;;;;112.43;54.67;;;;;;;8.48;100.00;101459.81;1522960;85;21512;-83
2023/01/03 11:21:22;;;;;;;116.20;56.37;;;;;;;8.43;100.00;101447.45;1524256;85;22462;-83
2023/01/03 11:24:27;;;;;;;113.27;55.83;;;;;;;8.43;100.00;101452.72;1518499;85;22349;-83
2023/01/03 11:27:23;;;;;;;115.30;55.47;;;;;;;8.41;100.00;101444.55;1513488;85;21352;-82
2023/01/03 11:30:20;;;;;;;107.67;57.13;;;;;;;8.41;100.00;101450.66;1521142;85;21322;-82
2023/01/03 11:33:01;;;;;;;106.97;53.77;;;;;;;8.39;100.00;101447.28;1513214;85;21411;-83
2023/01/03 11:35:53;;;;;;;98.72;50.67;;;;;;;8.39;100.00;101442.00;1448216;90;21529;-83
2023/01/03 11:38:54;;;;;;;121.90;56.57;;;;;;;8.38;100.00;101440.30;1451300;90;22410;-83
2023/01/03 11:41:48;;;;;;;114.08;56.25;;;;;;;8.42;100.00;101426.44;1451963;90;21456;-83
2023/01/03 11:44:51;;;;;;;128.00;56.93;;;;;;;8.53;100.00;101425.20;1453931;90;21382;-83
2023/01/03 11:47:38;;;;;;;123.13;58.30;;;;;;;8.54;100.00;101427.71;1453651;90;22401;-83
2023/01/03 11:50:36;;;;;;;109.63;54.23;;;;;;;8.52;100.00;101424.36;1452193;90;21361;-83
2023/01/03 11:53:23;;;;;;;127.80;60.73;;;;;;;8.54;100.00;101426.39;1451502;90;21544;-83
2023/01/03 11:56:03;;;;;;;129.23;60.53;;;;;;;8.54;100.00;101420.27;1447732;90;21478;-85
2023/01/03 11:58:43;;;;;;;116.00;59.27;;;;;;;8.62;100.00;101418.41;1446711;90;21568;-83
2023/01/03 12:01:31;;;;;;;126.33;62.53;;;;;;;8.68;100.00;101418.80;1444411;89;22433;-82
2023/01/03 12:04:03;;;;;;;125.67;61.33;;;;;;;8.72;100.00;101427.37;1446710;90;21426;-82
2023/01/03 12:06:50;;;;;;;114.97;61.20;;;;;;;8.72;100.00;101427.37;1448593;90;21462;-83
2023/01/03 12:09:30;;;;;;;134.83;67.97;;;;;;;8.64;100.00;101421.31;1446980;90;21411;-82
2023/01/03 12:12:37;;;;;;;124.80;67.55;;;;;;;8.66;100.00;101422.50;1449811;89;21523;-82
2023/01/03 12:15:45;;;;;;;110.10;60.43;;;;;;;8.71;100.00;101419.90;1527077;85;21469;-82
2023/01/03 12:18:41;;;;;;;102.67;56.93;;;;;;;8.79;100.00;101406.99;1529289;84;21476;-82
2023/01/03 12:21:34;;;;;;;116.77;59.77;;;;;;;8.90;100.00;101414.61;1516420;85;21485;-82
2023/01/03 12:24:15;;;;;;;108.47;60.50;;;;;;;8.97;100.00;101415.35;1516029;85;21403;-83
2023/01/03 12:26:44;;;;;;;110.70;58.50;;;;;;;9.10;100.00;101418.43;1518811;85;22435;-83
2023/01/03 12:29:21;;;;;;;114.57;60.00;;;;;;;9.17;100.00;101414.36;1503672;85;21448;-82
2023/01/03 12:32:05;;;;;;;117.03;57.97;;;;;;;9.21;100.00;101415.34;1516655;85;22306;-83
2023/01/03 12:34:55;;;;;;;110.57;58.43;;;;;;;9.19;100.00;101419.89;1523029;85;21396;-82
2023/01/03 12:37:25;;;;;;;109.10;56.00;;;;;;;9.20;100.00;101409.69;1522168;85;21447;-83
2023/01/03 12:40:00;;;;;;;108.35;54.93;;;;;;;9.18;100.00;101413.42;1525101;85;21388;-83
2023/01/03 12:42:37;;;;;;;108.37;56.20;;;;;;;9.20;100.00;101411.48;1484174;85;21470;-82
2023/01/03 12:45:44;;;;;;;99.27;51.47;;;;;;;9.25;100.00;101411.51;1522316;85;22440;-82
2023/01/03 12:48:31;;;;;;;95.03;50.40;;;;;;;9.34;100.00;101413.94;1520635;85;21360;-83
2023/01/03 12:50:57;;;;;;;97.20;55.40;;;;;;;9.43;100.00;101407.95;1512819;85;22158;-82
2023/01/03 12:53:44;;;;;;;113.97;54.60;;;;;;;9.46;100.00;101407.72;1521934;85;21336;-83
2023/01/03 12:56:42;;;;;;;106.83;55.40;;;;;;;9.47;100.00;101413.87;1524872;85;21456;-82
2023/01/03 12:59:38;;;;;;;103.83;55.43;;;;;;;9.46;100.00;101414.33;1515051;85;21396;-82
2023/01/03 13:02:21;;;;;;;96.83;54.13;;;;;;;9.37;100.00;101415.03;1522751;85;21454;-82
2023/01/03 13:04:52;;;;;;;110.60;56.47;;;;;;;9.29;100.00;101421.84;1525017;85;22423;-82
2023/01/03 13:07:29;;;;;;;105.77;55.67;;;;;;;9.26;100.00;101425.10;1516679;85;21300;-82
2023/01/03 13:10:03;;;;;;;103.63;54.00;;;;;;;9.18;100.00;101432.75;1519098;85;21352;-82
2023/01/03 13:12:34;;;;;;;113.03;53.43;;;;;;;9.18;100.00;101430.59;1519922;85;21389;-84
2023/01/03 13:15:17;;;;;;;104.80;55.50;;;;;;;9.18;100.00;101430.59;1523425;85;21359;-84
2023/01/03 13:17:46;;;;;;;100.23;55.77;;;;;;;9.21;100.00;101435.64;1527741;85;21440;-83